Chesterfield Township, New Jersey
Current Conditions -  °F | °C
As of 7:58 AM on Friday 28 Nov 2014 (Local Time) from KWRI Reporting Station
Clear Clear  
Wind Chill: 25°   Ceiling: Unl
Heat Index: 32°   Visibility: 10mi
Dew Point: 24°   Wind: 7mph
Humidity: 74%   Direction: 300°WNW
Pressure: 30.16"   Gusts: NA
Location:  40.144°N, 74.6589°W
Report Text: KWRI 281258Z AUTO 30006KT 10SM CLR 00/M04 A3016 RMK AO2 SLP218 T10021044
Loading
Personal Weather Stations






























Interactive Weather Map New forecast layout! Learn more

10-Day Weather Forecast

Advertisements
Track Severe Weather on mobile